sensor_id;sensor_type;location;lat;lon;timestamp;temperature;humidity
21799;DHT22;24973;47.178;15.316;2024-03-02T00:02:48;8.10;99.90
21799;DHT22;24973;47.178;15.316;2024-03-02T00:05:38;8.10;99.90
21799;DHT22;24973;47.178;15.316;2024-03-02T00:08:26;8.10;99.90
21799;DHT22;24973;47.178;15.316;2024-03-02T00:11:15;8.10;99.90
21799;DHT22;24973;47.178;15.316;2024-03-02T00:14:07;8.00;99.90
21799;DHT22;24973;47.178;15.316;2024-03-02T00:16:56;8.10;99.90
21799;DHT22;24973;47.178;15.316;2024-03-02T00:19:45;8.10;99.90
21799;DHT22;24973;47.178;15.316;2024-03-02T00:22:35;8.10;99.90
21799;DHT22;24973;47.178;15.316;2024-03-02T00:25:24;8.00;99.90
21799;DHT22;24973;47.178;15.316;2024-03-02T00:28:18;8.00;99.90
21799;DHT22;24973;47.178;15.316;2024-03-02T00:31:10;8.00;99.90
21799;DHT22;24973;47.178;15.316;2024-03-02T00:34:02;8.00;99.90
21799;DHT22;24973;47.178;15.316;2024-03-02T00:36:57;8.00;99.90
21799;DHT22;24973;47.178;15.316;2024-03-02T00:39:49;8.00;99.90
21799;DHT22;24973;47.178;15.316;2024-03-02T00:42:38;8.00;99.90
21799;DHT22;24973;47.178;15.316;2024-03-02T00:45:27;8.00;99.90
21799;DHT22;24973;47.178;15.316;2024-03-02T00:48:18;8.00;99.90
21799;DHT22;24973;47.178;15.316;2024-03-02T00:51:08;8.00;99.90
21799;DHT22;24973;47.178;15.316;2024-03-02T00:53:59;8.10;99.90
21799;DHT22;24973;47.178;15.316;2024-03-02T00:56:51;8.20;99.90
21799;DHT22;24973;47.178;15.316;2024-03-02T00:59:42;8.10;99.90
21799;DHT22;24973;47.178;15.316;2024-03-02T01:02:31;8.10;99.90
21799;DHT22;24973;47.178;15.316;2024-03-02T01:05:21;8.20;99.90
21799;DHT22;24973;47.178;15.316;2024-03-02T01:08:10;8.20;99.90
21799;DHT22;24973;47.178;15.316;2024-03-02T01:10:59;8.20;99.90
21799;DHT22;24973;47.178;15.316;2024-03-02T01:13:48;8.20;99.90
21799;DHT22;24973;47.178;15.316;2024-03-02T01:16:37;8.20;99.90
21799;DHT22;24973;47.178;15.316;2024-03-02T01:19:26;8.20;99.90
21799;DHT22;24973;47.178;15.316;2024-03-02T01:22:16;8.20;99.90
21799;DHT22;24973;47.178;15.316;2024-03-02T01:25:11;8.20;99.90
21799;DHT22;24973;47.178;15.316;2024-03-02T01:28:00;8.20;99.90
21799;DHT22;24973;47.178;15.316;2024-03-02T01:30:49;8.20;99.90
21799;DHT22;24973;47.178;15.316;2024-03-02T01:33:38;8.20;99.90
21799;DHT22;24973;47.178;15.316;2024-03-02T01:36:27;8.20;99.90
21799;DHT22;24973;47.178;15.316;2024-03-02T01:39:17;8.20;99.90
21799;DHT22;24973;47.178;15.316;2024-03-02T01:42:06;8.20;99.90
21799;DHT22;24973;47.178;15.316;2024-03-02T01:44:55;8.10;99.90
21799;DHT22;24973;47.178;15.316;2024-03-02T01:47:44;8.10;99.90
21799;DHT22;24973;47.178;15.316;2024-03-02T01:50:34;8.10;99.90
21799;DHT22;24973;47.178;15.316;2024-03-02T01:53:23;8.10;99.90
21799;DHT22;24973;47.178;15.316;2024-03-02T01:56:13;8.20;99.90
21799;DHT22;24973;47.178;15.316;2024-03-02T01:59:02;8.10;99.90
21799;DHT22;24973;47.178;15.316;2024-03-02T02:01:51;8.10;99.90
21799;DHT22;24973;47.178;15.316;2024-03-02T02:04:39;8.10;99.90
21799;DHT22;24973;47.178;15.316;2024-03-02T02:07:28;8.10;99.90
21799;DHT22;24973;47.178;15.316;2024-03-02T02:10:17;8.10;99.90
21799;DHT22;24973;47.178;15.316;2024-03-02T02:13:08;8.20;99.90
21799;DHT22;24973;47.178;15.316;2024-03-02T02:16:04;8.20;99.90
21799;DHT22;24973;47.178;15.316;2024-03-02T02:18:54;8.20;99.90
21799;DHT22;24973;47.178;15.316;2024-03-02T02:21:44;8.20;99.90
21799;DHT22;24973;47.178;15.316;2024-03-02T02:24:33;8.20;99.90
21799;DHT22;24973;47.178;15.316;2024-03-02T02:27:22;8.20;99.90
21799;DHT22;24973;47.178;15.316;2024-03-02T02:30:11;8.20;99.90
21799;DHT22;24973;47.178;15.316;2024-03-02T02:33:01;8.20;99.90
21799;DHT22;24973;47.178;15.316;2024-03-02T02:35:50;8.20;99.90
21799;DHT22;24973;47.178;15.316;2024-03-02T02:38:43;8.20;99.90
21799;DHT22;24973;47.178;15.316;2024-03-02T02:41:33;8.20;99.90
21799;DHT22;24973;47.178;15.316;2024-03-02T02:44:22;8.20;99.90
21799;DHT22;24973;47.178;15.316;2024-03-02T02:47:11;8.30;99.90
21799;DHT22;24973;47.178;15.316;2024-03-02T02:50:00;8.20;99.90
21799;DHT22;24973;47.178;15.316;2024-03-02T02:52:50;8.20;99.90
21799;DHT22;24973;47.178;15.316;2024-03-02T02:55:41;8.20;99.90
21799;DHT22;24973;47.178;15.316;2024-03-02T02:58:30;8.20;99.90
21799;DHT22;24973;47.178;15.316;2024-03-02T03:01:19;8.20;99.90
21799;DHT22;24973;47.178;15.316;2024-03-02T03:04:08;8.20;99.90
21799;DHT22;24973;47.178;15.316;2024-03-02T03:06:57;8.20;99.90
21799;DHT22;24973;47.178;15.316;2024-03-02T03:09:46;8.20;99.90
21799;DHT22;24973;47.178;15.316;2024-03-02T03:12:36;8.20;99.90
21799;DHT22;24973;47.178;15.316;2024-03-02T03:15:25;8.20;99.90
21799;DHT22;24973;47.178;15.316;2024-03-02T03:18:14;8.20;99.90
21799;DHT22;24973;47.178;15.316;2024-03-02T03:21:03;8.20;99.90
21799;DHT22;24973;47.178;15.316;2024-03-02T03:23:52;8.20;99.90
21799;DHT22;24973;47.178;15.316;2024-03-02T03:26:42;8.20;99.90
21799;DHT22;24973;47.178;15.316;2024-03-02T03:29:32;8.20;99.90
21799;DHT22;24973;47.178;15.316;2024-03-02T03:32:22;8.20;99.90
21799;DHT22;24973;47.178;15.316;2024-03-02T03:35:11;8.20;99.90
21799;DHT22;24973;47.178;15.316;2024-03-02T03:38:01;8.20;99.90
21799;DHT22;24973;47.178;15.316;2024-03-02T03:40:50;8.20;99.90
21799;DHT22;24973;47.178;15.316;2024-03-02T03:43:39;8.20;99.90
21799;DHT22;24973;47.178;15.316;2024-03-02T03:46:30;8.20;99.90
21799;DHT22;24973;47.178;15.316;2024-03-02T03:49:18;8.10;99.90
21799;DHT22;24973;47.178;15.316;2024-03-02T03:52:07;8.10;99.90
21799;DHT22;24973;47.178;15.316;2024-03-02T03:54:56;8.10;99.90
21799;DHT22;24973;47.178;15.316;2024-03-02T03:57:45;8.10;99.90
21799;DHT22;24973;47.178;15.316;2024-03-02T04:00:34;8.10;99.90
21799;DHT22;24973;47.178;15.316;2024-03-02T04:03:24;8.10;99.90
21799;DHT22;24973;47.178;15.316;2024-03-02T04:06:13;8.10;99.90
21799;DHT22;24973;47.178;15.316;2024-03-02T04:09:04;8.10;99.90
21799;DHT22;24973;47.178;15.316;2024-03-02T04:11:53;8.10;99.90
21799;DHT22;24973;47.178;15.316;2024-03-02T04:14:42;8.10;99.90
21799;DHT22;24973;47.178;15.316;2024-03-02T04:17:32;8.10;99.90
21799;DHT22;24973;47.178;15.316;2024-03-02T04:20:24;8.10;99.90
21799;DHT22;24973;47.178;15.316;2024-03-02T04:23:13;8.10;99.90
21799;DHT22;24973;47.178;15.316;2024-03-02T04:26:01;8.10;99.90
21799;DHT22;24973;47.178;15.316;2024-03-02T04:28:51;8.10;99.90
21799;DHT22;24973;47.178;15.316;2024-03-02T04:31:41;8.10;99.90
21799;DHT22;24973;47.178;15.316;2024-03-02T04:34:29;8.10;99.90
21799;DHT22;24973;47.178;15.316;2024-03-02T04:37:20;8.00;99.90
21799;DHT22;24973;47.178;15.316;2024-03-02T04:40:09;8.00;99.90
21799;DHT22;24973;47.178;15.316;2024-03-02T04:42:59;8.00;99.90
21799;DHT22;24973;47.178;15.316;2024-03-02T04:45:48;7.90;99.90
21799;DHT22;24973;47.178;15.316;2024-03-02T04:48:37;7.90;99.90
21799;DHT22;24973;47.178;15.316;2024-03-02T04:51:25;7.80;99.90
21799;DHT22;24973;47.178;15.316;2024-03-02T04:54:16;7.80;99.90
21799;DHT22;24973;47.178;15.316;2024-03-02T04:57:05;7.80;99.90
21799;DHT22;24973;47.178;15.316;2024-03-02T04:59:55;7.80;99.90
21799;DHT22;24973;47.178;15.316;2024-03-02T05:02:43;7.80;99.90
21799;DHT22;24973;47.178;15.316;2024-03-02T05:05:32;7.70;99.90
21799;DHT22;24973;47.178;15.316;2024-03-02T05:08:22;7.70;99.90
21799;DHT22;24973;47.178;15.316;2024-03-02T05:11:13;7.70;99.90
21799;DHT22;24973;47.178;15.316;2024-03-02T05:14:33;7.70;99.90
21799;DHT22;24973;47.178;15.316;2024-03-02T05:17:22;7.60;99.90
21799;DHT22;24973;47.178;15.316;2024-03-02T05:20:11;7.60;99.90
21799;DHT22;24973;47.178;15.316;2024-03-02T05:23:00;7.60;99.90
21799;DHT22;24973;47.178;15.316;2024-03-02T05:25:49;7.60;99.90
21799;DHT22;24973;47.178;15.316;2024-03-02T05:28:39;7.60;99.90
21799;DHT22;24973;47.178;15.316;2024-03-02T05:31:28;7.60;99.90
21799;DHT22;24973;47.178;15.316;2024-03-02T05:34:17;7.60;99.90
21799;DHT22;24973;47.178;15.316;2024-03-02T05:37:05;7.60;99.90
21799;DHT22;24973;47.178;15.316;2024-03-02T05:39:54;7.50;99.90
21799;DHT22;24973;47.178;15.316;2024-03-02T05:42:43;7.60;99.90
21799;DHT22;24973;47.178;15.316;2024-03-02T05:45:34;7.60;99.90
21799;DHT22;24973;47.178;15.316;2024-03-02T05:48:23;7.60;99.90
21799;DHT22;24973;47.178;15.316;2024-03-02T05:51:12;7.60;99.90
21799;DHT22;24973;47.178;15.316;2024-03-02T05:54:01;7.50;99.90
21799;DHT22;24973;47.178;15.316;2024-03-02T05:56:50;7.50;99.90
21799;DHT22;24973;47.178;15.316;2024-03-02T05:59:39;7.50;99.90
21799;DHT22;24973;47.178;15.316;2024-03-02T06:02:29;7.50;99.90
21799;DHT22;24973;47.178;15.316;2024-03-02T06:05:18;7.50;99.90
21799;DHT22;24973;47.178;15.316;2024-03-02T06:08:07;7.40;99.90
21799;DHT22;24973;47.178;15.316;2024-03-02T06:10:56;7.40;99.90
21799;DHT22;24973;47.178;15.316;2024-03-02T06:13:45;7.40;99.90
21799;DHT22;24973;47.178;15.316;2024-03-02T06:16:34;7.30;99.90
21799;DHT22;24973;47.178;15.316;2024-03-02T06:19:25;7.30;99.90
21799;DHT22;24973;47.178;15.316;2024-03-02T06:22:14;7.30;99.90
21799;DHT22;24973;47.178;15.316;2024-03-02T06:25:04;7.20;99.90
21799;DHT22;24973;47.178;15.316;2024-03-02T06:27:53;7.20;99.90
21799;DHT22;24973;47.178;15.316;2024-03-02T06:30:42;7.20;99.90
21799;DHT22;24973;47.178;15.316;2024-03-02T06:33:31;7.30;99.90
21799;DHT22;24973;47.178;15.316;2024-03-02T06:36:21;7.30;99.90
21799;DHT22;24973;47.178;15.316;2024-03-02T06:39:10;7.30;99.90
21799;DHT22;24973;47.178;15.316;2024-03-02T06:41:59;7.30;99.90
21799;DHT22;24973;47.178;15.316;2024-03-02T06:44:48;7.30;99.90
21799;DHT22;24973;47.178;15.316;2024-03-02T06:47:37;7.30;99.90
21799;DHT22;24973;47.178;15.316;2024-03-02T06:50:26;7.40;99.90
21799;DHT22;24973;47.178;15.316;2024-03-02T06:53:17;7.30;99.90
21799;DHT22;24973;47.178;15.316;2024-03-02T06:56:07;7.30;99.90
21799;DHT22;24973;47.178;15.316;2024-03-02T06:58:56;7.40;99.90
21799;DHT22;24973;47.178;15.316;2024-03-02T07:01:46;7.40;99.90
21799;DHT22;24973;47.178;15.316;2024-03-02T07:04:35;7.40;99.90
21799;DHT22;24973;47.178;15.316;2024-03-02T07:07:24;7.40;99.90
21799;DHT22;24973;47.178;15.316;2024-03-02T07:10:14;7.30;99.90
21799;DHT22;24973;47.178;15.316;2024-03-02T07:13:03;7.40;99.90
21799;DHT22;24973;47.178;15.316;2024-03-02T07:15:52;7.40;99.90
21799;DHT22;24973;47.178;15.316;2024-03-02T07:19:09;7.50;99.90
21799;DHT22;24973;47.178;15.316;2024-03-02T07:21:58;7.60;99.90
21799;DHT22;24973;47.178;15.316;2024-03-02T07:24:47;7.60;99.90
21799;DHT22;24973;47.178;15.316;2024-03-02T07:27:38;7.70;99.90
21799;DHT22;24973;47.178;15.316;2024-03-02T07:30:27;7.70;99.90
21799;DHT22;24973;47.178;15.316;2024-03-02T07:33:16;7.70;99.90
21799;DHT22;24973;47.178;15.316;2024-03-02T07:36:06;7.60;99.90
21799;DHT22;24973;47.178;15.316;2024-03-02T07:38:55;7.60;99.90
21799;DHT22;24973;47.178;15.316;2024-03-02T07:41:45;7.70;99.90
21799;DHT22;24973;47.178;15.316;2024-03-02T07:44:36;7.80;99.90
21799;DHT22;24973;47.178;15.316;2024-03-02T07:47:27;7.80;99.90
21799;DHT22;24973;47.178;15.316;2024-03-02T07:50:16;7.90;99.90
21799;DHT22;24973;47.178;15.316;2024-03-02T07:53:06;8.00;99.90
21799;DHT22;24973;47.178;15.316;2024-03-02T07:55:56;8.10;99.90
21799;DHT22;24973;47.178;15.316;2024-03-02T07:58:49;8.30;99.90
21799;DHT22;24973;47.178;15.316;2024-03-02T08:01:40;8.40;99.90
21799;DHT22;24973;47.178;15.316;2024-03-02T08:04:29;8.50;99.90
21799;DHT22;24973;47.178;15.316;2024-03-02T08:07:18;8.70;99.90
21799;DHT22;24973;47.178;15.316;2024-03-02T08:10:08;8.80;99.90
21799;DHT22;24973;47.178;15.316;2024-03-02T08:12:57;8.90;99.90
21799;DHT22;24973;47.178;15.316;2024-03-02T08:15:46;9.00;99.90
21799;DHT22;24973;47.178;15.316;2024-03-02T08:18:36;9.10;99.90
21799;DHT22;24973;47.178;15.316;2024-03-02T08:21:26;9.20;99.90
21799;DHT22;24973;47.178;15.316;2024-03-02T08:24:17;9.50;99.90
21799;DHT22;24973;47.178;15.316;2024-03-02T08:27:06;9.60;99.90
21799;DHT22;24973;47.178;15.316;2024-03-02T08:29:56;9.70;99.90
21799;DHT22;24973;47.178;15.316;2024-03-02T08:32:45;9.80;99.90
21799;DHT22;24973;47.178;15.316;2024-03-02T08:35:37;10.10;99.90
21799;DHT22;24973;47.178;15.316;2024-03-02T08:38:26;10.20;99.90
21799;DHT22;24973;47.178;15.316;2024-03-02T08:41:15;10.40;99.90
21799;DHT22;24973;47.178;15.316;2024-03-02T08:44:04;10.50;99.90
21799;DHT22;24973;47.178;15.316;2024-03-02T08:46:53;10.40;99.90
21799;DHT22;24973;47.178;15.316;2024-03-02T08:49:42;10.20;99.90
21799;DHT22;24973;47.178;15.316;2024-03-02T08:52:32;10.40;99.90
21799;DHT22;24973;47.178;15.316;2024-03-02T08:55:21;10.30;99.90
21799;DHT22;24973;47.178;15.316;2024-03-02T08:58:10;10.40;99.90
21799;DHT22;24973;47.178;15.316;2024-03-02T09:00:59;10.30;99.90
21799;DHT22;24973;47.178;15.316;2024-03-02T09:03:49;10.50;99.90
21799;DHT22;24973;47.178;15.316;2024-03-02T09:06:38;10.70;99.90
21799;DHT22;24973;47.178;15.316;2024-03-02T09:09:28;10.90;99.90
21799;DHT22;24973;47.178;15.316;2024-03-02T09:12:19;11.20;99.90
21799;DHT22;24973;47.178;15.316;2024-03-02T09:15:09;11.40;99.90
21799;DHT22;24973;47.178;15.316;2024-03-02T09:17:57;11.70;99.90
21799;DHT22;24973;47.178;15.316;2024-03-02T09:20:46;11.80;99.90
21799;DHT22;24973;47.178;15.316;2024-03-02T09:23:35;12.10;99.90
21799;DHT22;24973;47.178;15.316;2024-03-02T09:26:26;12.10;99.90
21799;DHT22;24973;47.178;15.316;2024-03-02T09:29:15;12.20;99.90
21799;DHT22;24973;47.178;15.316;2024-03-02T09:32:06;12.40;99.90
21799;DHT22;24973;47.178;15.316;2024-03-02T09:34:55;12.50;99.90
21799;DHT22;24973;47.178;15.316;2024-03-02T09:37:45;12.60;99.90
21799;DHT22;24973;47.178;15.316;2024-03-02T09:40:34;12.60;99.90
21799;DHT22;24973;47.178;15.316;2024-03-02T09:43:25;12.80;99.90
21799;DHT22;24973;47.178;15.316;2024-03-02T09:46:14;12.80;99.90
21799;DHT22;24973;47.178;15.316;2024-03-02T09:49:04;12.80;99.90
21799;DHT22;24973;47.178;15.316;2024-03-02T09:51:53;12.80;99.90
21799;DHT22;24973;47.178;15.316;2024-03-02T09:54:42;12.60;99.90
21799;DHT22;24973;47.178;15.316;2024-03-02T09:57:32;12.40;99.90
21799;DHT22;24973;47.178;15.316;2024-03-02T10:00:22;12.50;99.90
21799;DHT22;24973;47.178;15.316;2024-03-02T10:03:12;12.70;99.90
21799;DHT22;24973;47.178;15.316;2024-03-02T10:06:21;12.90;99.90
21799;DHT22;24973;47.178;15.316;2024-03-02T10:09:11;13.00;99.90
21799;DHT22;24973;47.178;15.316;2024-03-02T10:12:16;13.20;99.90
21799;DHT22;24973;47.178;15.316;2024-03-02T10:15:06;13.40;99.90
21799;DHT22;24973;47.178;15.316;2024-03-02T10:17:58;13.50;99.90
21799;DHT22;24973;47.178;15.316;2024-03-02T10:20:47;13.70;99.90
21799;DHT22;24973;47.178;15.316;2024-03-02T10:23:36;13.60;99.90
21799;DHT22;24973;47.178;15.316;2024-03-02T10:26:26;13.60;99.90
21799;DHT22;24973;47.178;15.316;2024-03-02T10:29:15;13.60;99.90
21799;DHT22;24973;47.178;15.316;2024-03-02T10:32:04;13.50;99.90
21799;DHT22;24973;47.178;15.316;2024-03-02T10:34:56;13.50;99.90
21799;DHT22;24973;47.178;15.316;2024-03-02T10:37:45;13.60;99.90
21799;DHT22;24973;47.178;15.316;2024-03-02T10:40:34;13.70;99.90
21799;DHT22;24973;47.178;15.316;2024-03-02T10:43:24;13.70;99.90
21799;DHT22;24973;47.178;15.316;2024-03-02T10:46:14;13.80;99.90
21799;DHT22;24973;47.178;15.316;2024-03-02T10:49:06;14.00;99.90
21799;DHT22;24973;47.178;15.316;2024-03-02T10:51:57;14.20;99.90
21799;DHT22;24973;47.178;15.316;2024-03-02T10:54:46;14.30;99.90
21799;DHT22;24973;47.178;15.316;2024-03-02T10:57:41;14.10;99.90
21799;DHT22;24973;47.178;15.316;2024-03-02T11:00:33;14.00;99.90
21799;DHT22;24973;47.178;15.316;2024-03-02T11:03:23;14.10;99.90
21799;DHT22;24973;47.178;15.316;2024-03-02T11:06:13;14.20;99.90
21799;DHT22;24973;47.178;15.316;2024-03-02T11:09:06;14.40;99.90
21799;DHT22;24973;47.178;15.316;2024-03-02T11:12:02;14.60;99.90
21799;DHT22;24973;47.178;15.316;2024-03-02T11:14:52;14.80;99.90
21799;DHT22;24973;47.178;15.316;2024-03-02T11:17:43;15.30;99.90
21799;DHT22;24973;47.178;15.316;2024-03-02T11:20:36;15.90;99.90
21799;DHT22;24973;47.178;15.316;2024-03-02T11:23:32;16.50;99.90
21799;DHT22;24973;47.178;15.316;2024-03-02T11:26:23;16.90;99.90
21799;DHT22;24973;47.178;15.316;2024-03-02T11:29:45;17.40;99.90
21799;DHT22;24973;47.178;15.316;2024-03-02T11:32:34;17.60;99.90
21799;DHT22;24973;47.178;15.316;2024-03-02T11:35:25;17.80;99.90
21799;DHT22;24973;47.178;15.316;2024-03-02T11:38:15;18.00;99.90
21799;DHT22;24973;47.178;15.316;2024-03-02T11:41:07;18.00;99.50
21799;DHT22;24973;47.178;15.316;2024-03-02T11:43:59;17.50;99.40
21799;DHT22;24973;47.178;15.316;2024-03-02T11:46:53;17.50;99.90
21799;DHT22;24973;47.178;15.316;2024-03-02T11:49:49;17.30;97.90
21799;DHT22;24973;47.178;15.316;2024-03-02T11:52:42;16.90;98.60
21799;DHT22;24973;47.178;15.316;2024-03-02T11:55:31;17.20;99.40
21799;DHT22;24973;47.178;15.316;2024-03-02T11:58:23;17.40;98.30
21799;DHT22;24973;47.178;15.316;2024-03-02T12:01:15;17.50;97.60
21799;DHT22;24973;47.178;15.316;2024-03-02T12:04:05;17.10;96.90
21799;DHT22;24973;47.178;15.316;2024-03-02T12:06:55;16.50;97.20
21799;DHT22;24973;47.178;15.316;2024-03-02T12:09:47;16.60;97.90
21799;DHT22;24973;47.178;15.316;2024-03-02T12:12:36;17.10;98.20
21799;DHT22;24973;47.178;15.316;2024-03-02T12:15:26;16.90;96.50
21799;DHT22;24973;47.178;15.316;2024-03-02T12:18:16;17.20;97.10
21799;DHT22;24973;47.178;15.316;2024-03-02T12:21:05;17.20;96.60
21799;DHT22;24973;47.178;15.316;2024-03-02T12:23:56;16.60;96.50
21799;DHT22;24973;47.178;15.316;2024-03-02T12:26:45;15.90;96.90
21799;DHT22;24973;47.178;15.316;2024-03-02T12:29:35;15.10;97.10
21799;DHT22;24973;47.178;15.316;2024-03-02T12:32:24;15.40;98.00
21799;DHT22;24973;47.178;15.316;2024-03-02T12:35:17;15.90;98.10
21799;DHT22;24973;47.178;15.316;2024-03-02T12:38:06;16.90;98.90
21799;DHT22;24973;47.178;15.316;2024-03-02T12:40:56;18.00;97.50
21799;DHT22;24973;47.178;15.316;2024-03-02T12:43:45;19.10;96.20
